Time;durP1;ratioP1;P1;durP2;ratioP2;P2;SDS_P1;SDS_P2;PMS_P1;PMS_P2;Temp;Humidity;BMP_temperature;BMP_pressure;BME280_temperature;BME280_humidity;BME280_pressure;Samples;Min_cycle;Max_cycle;Signal;HPM_P1;HPM_P2
2022/03/31 00:00:31;;;;;;;17.10;7.97;;;;;;;;;;5051688;28;20423;-60
2022/03/31 00:02:57;;;;;;;19.50;8.27;;;;;;;;;;5051469;28;20426;-60
2022/03/31 00:05:23;;;;;;;11.60;8.10;;;;;;;;;;5042024;28;20200;-60
2022/03/31 00:07:51;;;;;;;14.77;8.47;;;;;;;;;;5050877;28;20420;-60
2022/03/31 00:10:24;;;;;;;15.17;7.83;;;;;;;;;;5050962;28;20416;-60
2022/03/31 00:12:51;;;;;;;8.23;7.43;;;;;;;;;;5050833;28;20442;-61
2022/03/31 00:15:17;;;;;;;13.93;9.00;;;;;;;;;;5050973;28;20793;-60
2022/03/31 00:17:43;;;;;;;21.53;8.50;;;;;;;;;;5032758;28;20964;-61
2022/03/31 00:20:10;;;;;;;15.67;8.40;;;;;;;;;;5048515;28;20613;-59
2022/03/31 00:22:37;;;;;;;12.73;7.90;;;;;;;;;;5044595;28;20455;-59
2022/03/31 00:25:03;;;;;;;13.43;9.30;;;;;;;;;;5051222;28;20483;-59
2022/03/31 00:27:29;;;;;;;22.93;10.70;;;;;;;;;;5050665;28;20415;-60
2022/03/31 00:29:55;;;;;;;18.77;9.30;;;;;;;;;;5050870;28;20466;-60
2022/03/31 00:32:22;;;;;;;24.57;11.33;;;;;;;;;;5050443;28;20431;-60
2022/03/31 00:34:48;;;;;;;21.73;10.93;;;;;;;;;;5050136;28;20490;-60
2022/03/31 00:37:14;;;;;;;16.43;10.67;;;;;;;;;;5030377;28;20442;-59
2022/03/31 00:39:42;;;;;;;20.97;12.80;;;;;;;;;;5048407;28;20618;-60
2022/03/31 00:42:10;;;;;;;18.63;13.27;;;;;;;;;;5050699;28;20496;-60
2022/03/31 00:44:36;;;;;;;21.40;11.93;;;;;;;;;;5033161;28;20868;-60
2022/03/31 00:47:02;;;;;;;22.00;12.10;;;;;;;;;;5050894;28;20459;-60
2022/03/31 00:49:29;;;;;;;19.97;12.17;;;;;;;;;;5051032;28;20815;-60
2022/03/31 00:51:55;;;;;;;23.60;12.23;;;;;;;;;;5032669;28;20809;-60
2022/03/31 00:54:22;;;;;;;20.03;11.53;;;;;;;;;;5034729;28;20451;-60
2022/03/31 00:56:49;;;;;;;19.77;11.73;;;;;;;;;;5051055;28;21321;-60
2022/03/31 00:59:16;;;;;;;30.60;14.77;;;;;;;;;;5050965;28;20948;-60
2022/03/31 01:01:43;;;;;;;24.20;12.90;;;;;;;;;;5050968;28;20461;-60
2022/03/31 01:04:09;;;;;;;28.47;16.10;;;;;;;;;;5050767;28;20419;-60
2022/03/31 01:06:35;;;;;;;24.40;16.70;;;;;;;;;;5033124;28;20550;-60
2022/03/31 01:09:02;;;;;;;26.23;16.47;;;;;;;;;;5039126;28;20433;-60
2022/03/31 01:11:29;;;;;;;33.40;18.60;;;;;;;;;;5050726;28;20419;-60
2022/03/31 01:13:56;;;;;;;35.90;18.10;;;;;;;;;;5050577;28;20480;-60
2022/03/31 01:16:22;;;;;;;44.60;18.70;;;;;;;;;;5050472;28;20459;-60
2022/03/31 01:18:50;;;;;;;32.33;18.50;;;;;;;;;;5050716;28;20423;-60
2022/03/31 01:21:17;;;;;;;28.80;17.67;;;;;;;;;;5032792;28;21055;-60
2022/03/31 01:23:44;;;;;;;33.33;17.90;;;;;;;;;;5050794;28;20511;-60
2022/03/31 01:26:10;;;;;;;31.00;17.13;;;;;;;;;;5044367;28;20522;-60
2022/03/31 01:28:40;;;;;;;33.63;18.07;;;;;;;;;;5050181;28;20421;-60
2022/03/31 01:31:06;;;;;;;35.37;18.47;;;;;;;;;;5050343;28;20434;-60
2022/03/31 01:33:33;;;;;;;32.03;18.17;;;;;;;;;;5050617;28;20415;-60
2022/03/31 01:35:59;;;;;;;27.00;17.37;;;;;;;;;;5050210;28;20454;-60
2022/03/31 01:38:25;;;;;;;32.60;18.57;;;;;;;;;;5042166;28;20430;-61
2022/03/31 01:40:51;;;;;;;30.97;17.97;;;;;;;;;;5050451;28;20555;-60
2022/03/31 01:43:19;;;;;;;35.63;19.57;;;;;;;;;;5047233;28;20509;-60
2022/03/31 01:45:45;;;;;;;30.30;16.70;;;;;;;;;;5045169;28;20412;-60
2022/03/31 01:48:12;;;;;;;34.73;18.00;;;;;;;;;;5053454;28;20423;-60
2022/03/31 01:50:38;;;;;;;28.63;16.70;;;;;;;;;;5054100;28;20843;-60
2022/03/31 01:53:04;;;;;;;31.00;17.83;;;;;;;;;;5053984;28;20502;-60
2022/03/31 01:55:30;;;;;;;37.27;17.30;;;;;;;;;;5054012;28;20423;-60
2022/03/31 01:57:56;;;;;;;25.73;16.73;;;;;;;;;;5034945;28;20462;-60
2022/03/31 02:00:22;;;;;;;26.37;16.17;;;;;;;;;;5053561;28;20423;-59
2022/03/31 02:02:48;;;;;;;26.17;16.43;;;;;;;;;;5053711;28;20546;-59
2022/03/31 02:05:14;;;;;;;32.80;16.67;;;;;;;;;;5053802;28;20427;-60
2022/03/31 02:07:40;;;;;;;32.27;17.20;;;;;;;;;;5053787;28;20423;-59
2022/03/31 02:10:10;;;;;;;25.07;15.87;;;;;;;;;;5053583;28;20473;-59
2022/03/31 02:12:36;;;;;;;31.03;16.73;;;;;;;;;;5053526;28;20424;-60
2022/03/31 02:15:03;;;;;;;31.40;17.67;;;;;;;;;;5052861;28;20474;-60
2022/03/31 02:17:29;;;;;;;34.63;17.30;;;;;;;;;;5053290;28;20467;-60
2022/03/31 02:19:55;;;;;;;27.00;15.57;;;;;;;;;;5053409;28;20964;-60
2022/03/31 02:22:21;;;;;;;25.70;15.20;;;;;;;;;;5053063;28;20538;-60
2022/03/31 02:24:48;;;;;;;33.70;17.60;;;;;;;;;;5034945;28;20428;-60
2022/03/31 02:27:14;;;;;;;31.30;15.40;;;;;;;;;;5052775;28;20423;-60
2022/03/31 02:29:40;;;;;;;27.33;14.77;;;;;;;;;;5053240;28;20428;-60
2022/03/31 02:32:07;;;;;;;26.53;15.50;;;;;;;;;;5032539;28;20771;-60
2022/03/31 02:34:34;;;;;;;23.30;14.13;;;;;;;;;;5053136;28;20459;-60
2022/03/31 02:36:59;;;;;;;34.83;18.23;;;;;;;;;;5053124;28;20419;-59
2022/03/31 02:39:28;;;;;;;31.40;15.90;;;;;;;;;;5053016;28;20420;-60
2022/03/31 02:41:57;;;;;;;26.33;13.57;;;;;;;;;;5052655;28;20482;-60
2022/03/31 02:44:23;;;;;;;21.43;14.57;;;;;;;;;;5034900;28;21118;-59
2022/03/31 02:46:49;;;;;;;30.37;14.13;;;;;;;;;;5053032;28;20800;-60
2022/03/31 02:49:15;;;;;;;26.43;14.20;;;;;;;;;;5051681;28;20447;-60
2022/03/31 02:51:41;;;;;;;32.53;15.23;;;;;;;;;;5052653;28;20458;-60
2022/03/31 02:56:52;;;;;;;18.83;12.70;;;;;;;;;;5052800;28;20863;-60
2022/03/31 02:59:18;;;;;;;33.33;13.40;;;;;;;;;;5052457;28;20510;-60
2022/03/31 03:01:44;;;;;;;24.77;12.80;;;;;;;;;;5052464;28;20455;-60
2022/03/31 03:04:11;;;;;;;27.10;13.37;;;;;;;;;;5052550;28;20424;-59
2022/03/31 03:06:37;;;;;;;21.57;11.97;;;;;;;;;;5051926;28;21184;-60
2022/03/31 03:09:03;;;;;;;24.77;12.20;;;;;;;;;;5049268;28;20473;-60
2022/03/31 03:11:30;;;;;;;19.53;11.20;;;;;;;;;;5052448;28;20412;-61
2022/03/31 03:13:56;;;;;;;24.63;12.80;;;;;;;;;;5052466;28;20423;-60
2022/03/31 03:16:24;;;;;;;19.07;11.53;;;;;;;;;;5034293;28;20567;-60
2022/03/31 03:18:52;;;;;;;24.43;12.50;;;;;;;;;;5034416;28;20431;-60
2022/03/31 03:21:18;;;;;;;24.03;12.60;;;;;;;;;;5034180;28;20459;-60
2022/03/31 03:23:44;;;;;;;20.03;12.73;;;;;;;;;;5046835;28;20826;-60
2022/03/31 03:26:10;;;;;;;21.73;12.67;;;;;;;;;;5052080;28;20642;-60
2022/03/31 03:28:37;;;;;;;19.27;12.27;;;;;;;;;;5052094;28;20413;-60
2022/03/31 03:31:06;;;;;;;26.40;12.13;;;;;;;;;;5051966;28;20436;-61
2022/03/31 03:33:32;;;;;;;20.63;12.53;;;;;;;;;;5033618;28;20862;-59
2022/03/31 03:35:59;;;;;;;38.60;13.30;;;;;;;;;;5051654;28;20435;-62
2022/03/31 03:38:26;;;;;;;21.73;12.67;;;;;;;;;;5043485;28;20909;-60
2022/03/31 03:40:52;;;;;;;22.37;12.57;;;;;;;;;;5043859;28;20650;-60
2022/03/31 03:43:18;;;;;;;26.60;13.87;;;;;;;;;;5051002;28;20423;-60
2022/03/31 03:45:44;;;;;;;25.87;14.40;;;;;;;;;;5051772;28;20420;-60
2022/03/31 03:48:11;;;;;;;26.20;13.80;;;;;;;;;;5051356;28;20423;-61
2022/03/31 03:50:38;;;;;;;22.03;14.07;;;;;;;;;;5050958;28;20451;-60
2022/03/31 03:53:04;;;;;;;23.30;14.37;;;;;;;;;;5047708;28;20550;-60
2022/03/31 03:55:34;;;;;;;29.77;14.13;;;;;;;;;;5040792;28;20444;-60
2022/03/31 03:58:01;;;;;;;22.43;13.50;;;;;;;;;;5043340;28;20431;-60
2022/03/31 04:00:27;;;;;;;26.37;14.70;;;;;;;;;;5042048;28;20451;-60
2022/03/31 04:02:53;;;;;;;26.83;13.80;;;;;;;;;;5050445;28;20485;-60
2022/03/31 04:05:20;;;;;;;30.13;16.23;;;;;;;;;;5051177;28;21282;-61
2022/03/31 04:07:46;;;;;;;37.33;17.03;;;;;;;;;;5042084;28;20427;-60
2022/03/31 04:10:12;;;;;;;24.43;13.97;;;;;;;;;;5033167;28;20467;-61
2022/03/31 04:12:39;;;;;;;24.97;15.20;;;;;;;;;;5019093;28;20431;-59
2022/03/31 04:15:06;;;;;;;30.00;17.90;;;;;;;;;;5036065;28;20446;-59
2022/03/31 04:17:32;;;;;;;32.27;15.77;;;;;;;;;;5024726;28;20525;-59
2022/03/31 04:19:58;;;;;;;28.87;15.33;;;;;;;;;;5027994;28;20460;-59
2022/03/31 04:22:25;;;;;;;39.27;15.20;;;;;;;;;;5030443;28;20464;-58
2022/03/31 04:24:51;;;;;;;23.93;15.23;;;;;;;;;;5036877;28;20500;-57
2022/03/31 04:27:17;;;;;;;29.83;17.27;;;;;;;;;;5042535;28;20965;-57
2022/03/31 04:29:43;;;;;;;31.33;16.73;;;;;;;;;;5050743;28;20794;-58
2022/03/31 04:32:09;;;;;;;27.40;16.40;;;;;;;;;;5041804;28;20437;-60
2022/03/31 04:34:35;;;;;;;29.50;17.50;;;;;;;;;;5049590;28;20799;-59
2022/03/31 04:37:02;;;;;;;31.97;17.57;;;;;;;;;;5050724;28;20477;-59
2022/03/31 04:39:28;;;;;;;34.17;16.93;;;;;;;;;;5038203;28;20430;-58
2022/03/31 04:41:54;;;;;;;37.00;17.47;;;;;;;;;;5040058;28;20974;-60
2022/03/31 04:44:20;;;;;;;29.33;16.23;;;;;;;;;;5039073;28;20439;-58
2022/03/31 04:46:47;;;;;;;30.27;18.33;;;;;;;;;;5038829;28;20440;-59
2022/03/31 04:49:13;;;;;;;31.57;18.60;;;;;;;;;;5043146;28;20446;-61
2022/03/31 04:51:39;;;;;;;28.17;17.23;;;;;;;;;;5034418;28;20531;-61
2022/03/31 04:54:06;;;;;;;31.10;17.97;;;;;;;;;;5038517;28;20436;-62
2022/03/31 04:56:32;;;;;;;27.37;16.80;;;;;;;;;;5039544;28;20432;-59
2022/03/31 04:58:58;;;;;;;31.53;17.23;;;;;;;;;;5054660;28;20431;-58
2022/03/31 05:01:24;;;;;;;27.00;15.70;;;;;;;;;;5051520;28;20459;-60
2022/03/31 05:03:54;;;;;;;28.93;18.87;;;;;;;;;;5043619;28;20449;-59
2022/03/31 05:06:20;;;;;;;39.73;16.97;;;;;;;;;;5032586;28;20513;-60
2022/03/31 05:08:47;;;;;;;32.70;17.53;;;;;;;;;;5029956;28;20434;-61
2022/03/31 05:11:13;;;;;;;33.40;17.40;;;;;;;;;;5040866;28;20589;-61
2022/03/31 05:13:38;;;;;;;35.03;18.30;;;;;;;;;;5039310;28;20533;-62
2022/03/31 05:16:05;;;;;;;32.63;18.20;;;;;;;;;;5031574;28;20499;-62
2022/03/31 05:18:31;;;;;;;31.70;18.40;;;;;;;;;;5023317;28;21025;-60
2022/03/31 05:20:57;;;;;;;29.33;17.77;;;;;;;;;;5033053;28;20455;-61
2022/03/31 05:23:23;;;;;;;31.13;19.00;;;;;;;;;;5054591;28;20427;-62
2022/03/31 05:25:50;;;;;;;32.97;17.30;;;;;;;;;;5054504;28;20415;-62
2022/03/31 05:28:16;;;;;;;27.60;18.20;;;;;;;;;;5054426;28;20204;-62
2022/03/31 05:30:45;;;;;;;38.70;20.47;;;;;;;;;;5054272;28;20419;-62
2022/03/31 05:33:11;;;;;;;34.57;19.67;;;;;;;;;;5054616;28;20474;-61
2022/03/31 05:35:38;;;;;;;36.40;18.70;;;;;;;;;;5036205;28;20791;-62
2022/03/31 05:38:04;;;;;;;31.07;19.00;;;;;;;;;;5036266;28;20427;-61
2022/03/31 05:40:30;;;;;;;28.40;18.37;;;;;;;;;;5054367;28;20506;-61
2022/03/31 05:42:56;;;;;;;30.00;18.27;;;;;;;;;;5054250;28;20545;-62
2022/03/31 05:45:25;;;;;;;30.80;18.80;;;;;;;;;;5054017;28;20419;-61
2022/03/31 05:47:51;;;;;;;32.43;19.20;;;;;;;;;;5054214;28;20442;-62
2022/03/31 05:50:17;;;;;;;43.30;19.30;;;;;;;;;;5054062;28;20419;-60
2022/03/31 05:52:43;;;;;;;28.70;17.00;;;;;;;;;;5053611;28;20897;-61
2022/03/31 05:55:11;;;;;;;31.37;19.23;;;;;;;;;;5053688;28;20419;-61
2022/03/31 05:57:37;;;;;;;33.37;19.67;;;;;;;;;;5054134;28;20493;-61
2022/03/31 06:00:05;;;;;;;39.57;20.47;;;;;;;;;;5053810;28;20428;-61
2022/03/31 06:02:31;;;;;;;30.97;18.60;;;;;;;;;;5053737;28;20459;-62
2022/03/31 06:04:57;;;;;;;32.93;19.87;;;;;;;;;;5053705;28;20510;-62
2022/03/31 06:07:23;;;;;;;29.37;18.43;;;;;;;;;;5053650;28;21133;-62
2022/03/31 06:09:49;;;;;;;36.47;20.10;;;;;;;;;;5053665;28;20426;-62
2022/03/31 06:12:15;;;;;;;31.10;19.70;;;;;;;;;;5053665;28;20416;-62
2022/03/31 06:14:42;;;;;;;35.17;20.30;;;;;;;;;;5035606;28;20462;-62
2022/03/31 06:17:08;;;;;;;32.03;19.70;;;;;;;;;;5053422;28;20470;-62
2022/03/31 06:19:34;;;;;;;34.80;19.37;;;;;;;;;;5035695;28;20431;-62
2022/03/31 06:22:00;;;;;;;30.57;19.40;;;;;;;;;;5053384;28;20543;-62
2022/03/31 06:24:26;;;;;;;33.47;20.87;;;;;;;;;;5053501;28;20430;-61
2022/03/31 06:26:52;;;;;;;31.97;19.27;;;;;;;;;;5053159;28;20428;-61
2022/03/31 06:29:19;;;;;;;32.70;19.77;;;;;;;;;;5053098;28;20494;-62
2022/03/31 06:31:45;;;;;;;31.57;19.47;;;;;;;;;;5053069;28;20510;-61
2022/03/31 06:34:11;;;;;;;41.53;20.27;;;;;;;;;;5052916;28;20423;-61
2022/03/31 06:36:37;;;;;;;35.87;21.00;;;;;;;;;;5052855;28;20427;-61
2022/03/31 06:39:04;;;;;;;30.23;18.97;;;;;;;;;;5035196;28;20438;-62
2022/03/31 06:41:30;;;;;;;32.10;19.67;;;;;;;;;;5052882;28;20459;-62
2022/03/31 06:43:56;;;;;;;35.13;21.50;;;;;;;;;;5053028;28;20469;-61
2022/03/31 06:46:22;;;;;;;36.30;20.33;;;;;;;;;;5035353;28;20842;-62
2022/03/31 06:48:48;;;;;;;40.83;20.87;;;;;;;;;;5053004;28;20432;-62
2022/03/31 06:51:15;;;;;;;35.63;21.23;;;;;;;;;;5052740;28;20428;-62
2022/03/31 06:53:41;;;;;;;37.27;22.47;;;;;;;;;;5052948;28;20420;-61
2022/03/31 06:56:09;;;;;;;37.90;20.27;;;;;;;;;;5052562;28;20850;-62
2022/03/31 06:58:36;;;;;;;39.20;23.20;;;;;;;;;;5052824;28;20426;-62
2022/03/31 07:01:02;;;;;;;42.87;21.13;;;;;;;;;;5052484;28;20468;-62
2022/03/31 07:03:28;;;;;;;34.37;21.63;;;;;;;;;;5052286;28;20897;-62
2022/03/31 07:05:54;;;;;;;37.53;22.63;;;;;;;;;;5052822;28;20416;-62
2022/03/31 07:08:21;;;;;;;42.23;24.27;;;;;;;;;;5052609;28;20462;-62
2022/03/31 07:10:47;;;;;;;43.27;22.20;;;;;;;;;;5052535;28;20462;-61
2022/03/31 07:13:13;;;;;;;38.50;22.90;;;;;;;;;;5052553;28;20447;-61
2022/03/31 07:15:39;;;;;;;40.40;22.07;;;;;;;;;;5052526;28;20446;-61
2022/03/31 07:18:05;;;;;;;45.07;24.27;;;;;;;;;;5052094;28;20459;-62
2022/03/31 07:20:31;;;;;;;43.23;24.13;;;;;;;;;;5052459;28;20407;-60
2022/03/31 07:22:57;;;;;;;44.80;24.83;;;;;;;;;;5052212;28;20560;-61
2022/03/31 07:25:24;;;;;;;44.10;24.00;;;;;;;;;;5052067;28;20936;-61
2022/03/31 07:27:50;;;;;;;48.03;25.43;;;;;;;;;;5052222;28;20415;-61
2022/03/31 07:30:17;;;;;;;41.73;23.30;;;;;;;;;;5034168;28;20435;-61
2022/03/31 07:32:47;;;;;;;42.03;24.10;;;;;;;;;;5052301;28;20434;-62
2022/03/31 07:35:13;;;;;;;40.43;23.27;;;;;;;;;;5052206;28;20470;-62
2022/03/31 07:37:39;;;;;;;51.53;25.83;;;;;;;;;;5051852;28;20512;-61
2022/03/31 07:40:05;;;;;;;39.60;22.87;;;;;;;;;;5051919;28;20470;-62
2022/03/31 07:42:31;;;;;;;41.77;22.87;;;;;;;;;;5052002;28;20212;-62
2022/03/31 07:44:57;;;;;;;47.80;24.47;;;;;;;;;;5033224;28;20436;-62
2022/03/31 07:47:23;;;;;;;46.47;26.33;;;;;;;;;;5051901;28;20411;-61
2022/03/31 07:49:49;;;;;;;46.93;23.50;;;;;;;;;;5052043;28;20776;-61
2022/03/31 07:52:16;;;;;;;42.20;23.60;;;;;;;;;;5051710;28;20447;-62
2022/03/31 07:54:42;;;;;;;42.13;24.40;;;;;;;;;;5033662;28;20450;-62
2022/03/31 07:57:09;;;;;;;44.30;24.70;;;;;;;;;;5051751;28;20500;-62
2022/03/31 07:59:35;;;;;;;46.13;24.33;;;;;;;;;;5051690;28;20423;-62
2022/03/31 08:02:01;;;;;;;41.50;23.53;;;;;;;;;;5051595;28;20451;-62
2022/03/31 08:04:27;;;;;;;43.53;25.37;;;;;;;;;;5051698;28;20466;-62
2022/03/31 08:06:54;;;;;;;48.90;25.03;;;;;;;;;;5033511;28;20462;-62
2022/03/31 08:09:23;;;;;;;46.33;25.67;;;;;;;;;;5051405;28;20416;-62
2022/03/31 08:11:49;;;;;;;43.17;23.57;;;;;;;;;;5051333;28;20481;-62
2022/03/31 08:14:19;;;;;;;41.80;22.47;;;;;;;;;;5051052;28;20779;-62
2022/03/31 08:16:46;;;;;;;43.80;24.00;;;;;;;;;;5033331;28;20463;-62
2022/03/31 08:19:13;;;;;;;50.57;25.03;;;;;;;;;;5051334;28;20415;-62
2022/03/31 08:21:41;;;;;;;48.30;24.27;;;;;;;;;;5051214;28;20466;-62
2022/03/31 08:24:07;;;;;;;45.73;23.23;;;;;;;;;;5051272;28;20465;-62
2022/03/31 08:26:33;;;;;;;41.33;23.47;;;;;;;;;;5051396;28;20428;-62
2022/03/31 08:28:59;;;;;;;39.10;22.50;;;;;;;;;;5033372;28;20439;-62
2022/03/31 08:31:26;;;;;;;55.03;25.97;;;;;;;;;;5042892;28;20503;-62
2022/03/31 08:33:52;;;;;;;48.03;26.43;;;;;;;;;;5050812;28;20416;-62
2022/03/31 08:36:18;;;;;;;43.10;24.40;;;;;;;;;;5032662;28;20446;-62
2022/03/31 08:38:45;;;;;;;43.23;24.30;;;;;;;;;;5050590;28;20919;-62
2022/03/31 08:41:11;;;;;;;42.30;23.60;;;;;;;;;;5050471;28;20536;-62
2022/03/31 08:43:38;;;;;;;43.90;24.33;;;;;;;;;;5050673;28;20526;-62
2022/03/31 08:46:06;;;;;;;50.50;24.17;;;;;;;;;;5050523;28;20416;-62
2022/03/31 08:48:33;;;;;;;44.83;24.13;;;;;;;;;;5050464;28;20419;-62
2022/03/31 08:50:59;;;;;;;47.03;25.03;;;;;;;;;;5050638;28;20438;-62
2022/03/31 08:53:25;;;;;;;43.77;23.30;;;;;;;;;;5050348;28;20893;-62
2022/03/31 08:55:51;;;;;;;37.20;21.43;;;;;;;;;;5051322;28;20473;-62
2022/03/31 08:58:17;;;;;;;42.97;23.80;;;;;;;;;;5054070;28;20419;-62
2022/03/31 09:00:44;;;;;;;40.93;22.40;;;;;;;;;;5054079;28;20931;-62
2022/03/31 09:03:10;;;;;;;41.03;20.70;;;;;;;;;;5053756;28;20455;-61
2022/03/31 09:05:36;;;;;;;42.40;20.80;;;;;;;;;;5035899;28;20423;-62
2022/03/31 09:08:05;;;;;;;41.20;22.93;;;;;;;;;;5053848;28;20509;-62
2022/03/31 09:10:36;;;;;;;37.43;20.43;;;19.80;1.00;;;;;;5054430;28;20476;-61
2022/03/31 09:13:17;;;;;;;35.03;19.67;;;;;;;;;;5054249;28;20936;-62
2022/03/31 09:15:48;;;;;;;37.20;20.10;;;;;;;;;;5036317;28;20549;-61
2022/03/31 09:18:16;;;;;;;38.50;19.97;;;;;;;;;;5054054;28;20951;-62
2022/03/31 09:20:43;;;;;;;29.83;17.13;;;;;;;;;;5054105;28;20506;-62
2022/03/31 09:23:14;;;;;;;32.43;18.50;;;;;;;;;;5053783;28;20459;-62
2022/03/31 09:25:41;;;;;;;29.77;18.03;;;;;;;;;;5054135;28;20412;-61
2022/03/31 09:28:18;;;;;;;22.30;15.90;;;;;;;;;;5053975;28;20445;-61
2022/03/31 09:30:49;;;;;;;22.13;13.20;;;;;;;;;;5054239;28;20415;-61
2022/03/31 09:33:30;;;;;;;26.93;15.63;;;;;;;;;;5054480;28;20765;-62
2022/03/31 09:36:00;;;;;;;24.27;15.43;;;;;;;;;;5054422;28;20416;-61
2022/03/31 09:38:26;;;;;;;30.40;16.67;;;;;;;;;;5045927;28;20407;-61
2022/03/31 09:40:53;;;;;;;27.80;16.90;;;6.70;99.90;;;;;;5054182;28;20917;-62
2022/03/31 09:43:19;;;;;;;27.93;16.00;;;6.40;99.90;;;;;;5036213;28;20800;-61
2022/03/31 09:45:45;;;;;;;21.67;14.80;;;6.30;99.90;;;;;;5036329;28;20447;-61
2022/03/31 09:48:21;;;;;;;21.23;13.20;;;;;;;;;;5054313;28;20423;-61
2022/03/31 09:50:49;;;;;;;21.83;13.57;;;;;;;;;;5054113;28;20181;-62
2022/03/31 09:53:16;;;;;;;21.70;13.30;;;6.40;99.90;;;;;;5053998;28;20742;-62
2022/03/31 09:55:46;;;;;;;23.17;15.40;;;;;;;;;;5035940;28;20458;-62
2022/03/31 09:58:18;;;;;;;22.83;14.30;;;;;;;;;;5053884;28;20427;-62
2022/03/31 10:00:45;;;;;;;24.60;14.30;;;;;;;;;;5053934;28;20419;-61
2022/03/31 10:03:14;;;;;;;26.87;14.90;;;;;;;;;;5053735;28;20582;-61
2022/03/31 10:05:42;;;;;;;33.37;15.30;;;;;;;;;;5053626;28;20415;-62
2022/03/31 10:08:10;;;;;;;31.00;17.50;;;;;;;;;;5034771;28;20423;-62
2022/03/31 10:10:37;;;;;;;30.43;15.67;;;;;;;;;;5036002;28;20899;-61
2022/03/31 10:13:11;;;;;;;21.70;15.10;;;;;;;;;;5053760;28;20434;-62
2022/03/31 10:15:37;;;;;;;19.33;14.10;;;;;;;;;;5053590;28;20419;-62
2022/03/31 10:18:04;;;;;;;21.27;14.17;;;;;;;;;;5035286;28;21052;-62
2022/03/31 10:20:29;;;;;;;18.67;13.30;;;6.60;99.90;;;;;;5053542;28;20420;-62
2022/03/31 10:25:45;;;;;;;21.50;13.87;;;;;;;;;;5047998;28;20200;-62
2022/03/31 10:28:15;;;;;;;29.30;12.80;;;;;;;;;;5053520;28;20419;-62
2022/03/31 10:30:52;;;;;;;24.70;14.60;;;;;;;;;;5052994;28;20905;-62
2022/03/31 10:33:27;;;;;;;19.23;12.43;;;8.00;99.90;;;;;;5053068;28;20437;-62
2022/03/31 10:36:00;;;;;;;33.03;12.53;;;;;;;;;;5053231;28;20469;-61
2022/03/31 10:38:27;;;;;;;22.73;15.20;;;;;;;;;;5045019;28;20407;-62
2022/03/31 10:41:00;;;;;;;19.93;12.97;;;;;;;;;;5053067;28;20412;-62
2022/03/31 10:43:31;;;;;;;21.40;13.43;;;;;;;;;;5043680;28;20424;-60
2022/03/31 10:46:00;;;;;;;18.40;12.27;;;;;;;;;;5053032;28;20419;-59
2022/03/31 10:48:27;;;;;;;18.90;12.90;;;;;;;;;;5044981;28;20491;-60
2022/03/31 10:51:02;;;;;;;17.87;10.87;;;;;;;;;;5035076;28;20752;-60
2022/03/31 10:53:29;;;;;;;21.53;12.03;;;;;;;;;;5044721;28;20920;-59
2022/03/31 10:55:55;;;;;;;19.00;12.60;;;;;;;;;;5052499;28;20477;-60
2022/03/31 10:58:25;;;;;;;19.13;11.53;;;;;;;;;;5052966;28;20427;-60
2022/03/31 11:00:52;;;;;;;20.07;12.47;;;;;;;;;;5052836;28;20938;-59
2022/03/31 11:03:19;;;;;;;18.33;13.00;;;;;;;;;;5052808;28;20423;-59
2022/03/31 11:05:45;;;;;;;19.10;12.60;;;;;;;;;;5034715;28;20793;-59
2022/03/31 11:08:17;;;;;;;17.63;12.40;;;;;;;;;;5052600;28;20431;-59
2022/03/31 11:10:45;;;;;;;25.70;14.17;;;;;;;;;;5052600;28;20423;-59
2022/03/31 11:13:11;;;;;;;20.57;12.60;;;;;;;;;;5052688;28;20938;-59
2022/03/31 11:15:37;;;;;;;19.03;13.10;;;;;;;;;;5052601;28;20477;-59
2022/03/31 11:18:03;;;;;;;21.03;13.27;;;;;;;;;;5052136;28;20564;-59
2022/03/31 11:20:30;;;;;;;19.97;12.77;;;;;;;;;;5052525;28;20412;-59
2022/03/31 11:22:59;;;;;;;20.67;13.80;;;;;;;;;;5052444;28;20545;-59
2022/03/31 11:25:26;;;;;;;17.27;12.60;;;;;;;;;;5052275;28;20446;-57
2022/03/31 11:27:53;;;;;;;17.67;12.80;;;;;;;;;;5052423;28;20418;-57
2022/03/31 11:30:20;;;;;;;17.80;11.83;;;;;;;;;;5052159;28;20422;-57
2022/03/31 11:32:48;;;;;;;17.97;11.80;;;;;;;;;;5052291;28;20419;-60
2022/03/31 11:35:19;;;;;;;15.13;11.97;;;;;;;;;;5034013;28;20485;-60
2022/03/31 11:37:49;;;;;;;17.17;11.30;;;;;;;;;;5048039;28;20420;-59
2022/03/31 11:40:23;;;;;;;18.13;11.13;;;;;;;;;;5051855;28;20419;-60
2022/03/31 11:42:50;;;;;;;15.10;11.60;;;;;;;;;;5051996;28;20466;-59
2022/03/31 11:45:22;;;;;;;17.07;10.93;;;;;;;;;;5051955;28;20416;-60
2022/03/31 11:47:55;;;;;;;22.37;12.13;;;;;;;;;;5051839;28;20515;-61
2022/03/31 11:50:23;;;;;;;24.67;10.93;;;;;;;;;;5052056;28;20424;-60
2022/03/31 11:52:49;;;;;;;15.90;12.53;;;;;;;;;;5051945;28;20449;-60
2022/03/31 11:55:15;;;;;;;27.40;11.93;;;;;;;;;;5051554;28;20477;-60
2022/03/31 11:57:50;;;;;;;18.77;13.07;;;;;;;;;;5051014;28;20428;-60
2022/03/31 12:00:17;;;;;;;16.90;11.10;;;;;;;;;;5050903;28;20425;-59
2022/03/31 12:02:43;;;;;;;21.57;12.60;;;;;;;;;;5051332;28;20474;-60
2022/03/31 12:05:15;;;;;;;14.23;10.33;;;;;;;;;;5051046;28;20415;-60
2022/03/31 12:07:41;;;;;;;16.40;11.27;;;;;;;;;;5051517;28;20968;-59
2022/03/31 12:10:08;;;;;;;17.00;11.33;;;;;;;;;;5050869;28;20416;-60
2022/03/31 12:12:34;;;;;;;18.67;11.07;;;;;;;;;;5051152;28;20507;-60
2022/03/31 12:15:00;;;;;;;16.70;12.00;;;;;;;;;;5051067;28;20427;-60
2022/03/31 12:17:27;;;;;;;15.97;12.13;;;;;;;;;;5042986;28;20463;-60
2022/03/31 12:19:53;;;;;;;14.00;11.00;;;;;;;;;;5033328;28;20531;-59
2022/03/31 12:22:30;;;;;;;15.90;11.67;;;;;;;;;;5050521;28;20463;-59
2022/03/31 12:24:56;;;;;;;19.13;11.47;;;;;;;;;;5050602;28;20514;-59
2022/03/31 12:27:24;;;;;;;19.53;10.60;;;;;;;;;;5050501;28;20451;-59
2022/03/31 12:30:00;;;;;;;17.80;12.20;;;;;;;;;;5049951;28;20947;-59
2022/03/31 12:32:27;;;;;;;19.70;12.67;;;;;;;;;;5042398;28;20429;-59
2022/03/31 12:34:59;;;;;;;15.40;11.80;;;;;;;;;;5050796;28;20477;-58
2022/03/31 12:37:29;;;;;;;13.13;11.33;;;;;;;;;;5050752;28;20436;-61
2022/03/31 12:39:55;;;;;;;17.00;11.60;;;;;;;;;;5036460;28;20743;-59
2022/03/31 12:42:21;;;;;;;18.30;12.40;;;;;;;;;;5050980;28;20459;-60
2022/03/31 12:44:48;;;;;;;14.43;11.93;;;;;;;;;;5050859;28;20469;-63
2022/03/31 12:47:18;;;;;;;22.03;11.17;;;;;;;;;;5032580;28;20458;-64
2022/03/31 12:49:45;;;;;;;19.10;11.60;;;;;;;;;;5032250;28;20416;-62
2022/03/31 12:52:31;;;;;;;17.33;11.63;;;;;;;;;;5032579;28;20573;-65
2022/03/31 12:54:59;;;;;;;15.33;12.20;;;;;;;;;;5032607;28;20454;-63
2022/03/31 12:57:25;;;;;;;15.87;11.90;;;;;;;;;;5032838;28;20785;-62
2022/03/31 13:00:00;;;;;;;14.70;11.80;;;;;;;;;;5032729;28;20451;-67
2022/03/31 13:02:26;;;;;;;12.27;9.50;;;;;;;;;;5037591;28;21019;-61
2022/03/31 13:04:52;;;;;;;15.70;9.80;;;;;;;;;;5048161;28;20443;-58
2022/03/31 13:07:27;;;;;;;19.57;10.93;;;;;;;;;;5050154;28;20416;-60
2022/03/31 13:09:53;;;;;;;18.57;11.60;;;;;;;;;;5050184;28;20931;-58
2022/03/31 13:12:19;;;;;;;12.30;10.50;;;;;;;;;;5050367;28;21000;-60
2022/03/31 13:14:46;;;;;;;12.77;10.90;;;;;;;;;;5046151;28;20577;-60
2022/03/31 13:17:14;;;;;;;14.73;11.60;;;;;;;;;;5030299;28;20471;-62
2022/03/31 13:19:40;;;;;;;25.90;13.60;;;;;;;;;;5030677;28;20514;-61
2022/03/31 13:22:07;;;;;;;15.17;11.90;;;;;;;;;;5048582;28;20613;-60
2022/03/31 13:24:33;;;;;;;24.10;12.83;;;;;;;;;;5047864;28;20568;-61
2022/03/31 13:26:59;;;;;;;17.73;12.43;;;;;;;;;;5048444;28;20419;-61
2022/03/31 13:29:25;;;;;;;20.27;14.50;;;;;;;;;;5049005;28;20942;-61
2022/03/31 13:31:52;;;;;;;25.90;13.50;;;;;;;;;;5030594;28;20439;-61
2022/03/31 13:34:21;;;;;;;19.77;12.13;;;;;;;;;;5049941;28;20435;-61
2022/03/31 13:36:47;;;;;;;19.10;13.23;;;;;;;;;;5050615;28;20427;-61
2022/03/31 13:39:15;;;;;;;20.97;13.10;;;;;;;;;;5050321;28;20414;-60
2022/03/31 13:41:41;;;;;;;21.17;14.23;;;;;;;;;;5050736;28;20450;-61
2022/03/31 13:44:08;;;;;;;15.63;11.87;;;;;;;;;;5054234;28;20489;-61
2022/03/31 13:46:34;;;;;;;19.43;14.10;;;;;;;;;;5053937;28;20419;-61
2022/03/31 13:49:00;;;;;;;27.40;13.67;;;;;;;;;;5035798;28;20782;-61
2022/03/31 13:51:26;;;;;;;24.23;14.13;;;;;;;;;;5041332;28;20731;-61
2022/03/31 13:53:55;;;;;;;18.07;12.63;;;;;;;;;;5049350;28;20432;-61
2022/03/31 13:56:21;;;;;;;19.77;14.23;;;;;;;;;;5053620;28;20446;-61
2022/03/31 14:01:34;;;;;;;25.70;12.90;;;;;;;;;;5046597;28;20885;-61
2022/03/31 14:04:01;;;;;;;24.03;11.73;;;;;;;;;;5053867;28;20423;-61
2022/03/31 14:06:29;;;;;;;18.97;12.30;;;;;;;;;;5045637;28;20892;-61
2022/03/31 14:08:59;;;;;;;21.17;12.70;;;;;;;;;;5053730;28;20425;-61
2022/03/31 14:11:30;;;;;;;17.87;10.33;;;;;;;;;;5053701;28;20455;-60
2022/03/31 14:13:56;;;;;;;17.63;11.83;;;;;;;;;;5053633;28;20415;-62
2022/03/31 14:16:23;;;;;;;15.47;10.17;;;;;;;;;;5053534;28;20451;-62
2022/03/31 14:18:50;;;;;;;16.03;10.50;;;;;;;;;;5053622;28;20416;-61
2022/03/31 14:21:16;;;;;;;13.77;10.03;;;;;;;;;;5053497;28;20510;-61
2022/03/31 14:23:44;;;;;;;13.87;9.57;;;;;;;;;;5052895;28;20514;-61